Berlin Bridge — VRIM5 — position and weather

sailwx.info

Track history (hours):
 
Tides and Currents Weather Stations Pressure Air Temp Water Temp Dewpoint Dewpoint Depression Visibility Wind Speed Wind Dir Waves Ship Positions

Berlin Bridge

Last reported at 2017-Dec-15 20:00 UTC. Time now 2017-Dec-15 20:10 UTC.
Position N 39°14' W 029°40'.

Length 268 m; draft 10.3 m.

Type: Ship (hazmat cat A). MMSI: 477213800.

Date/timePositionNaut miles runAvg speedWind from/ knotsBaromVisibWave heightAir tempDewpointWater temp
2017-Dec-15 20:00N 39°14' W 029°40'917.1
2017-Dec-15 19:31N 39°13' W 029°51'917.1
2017-Dec-15 19:00N 39°13' W 030°02'816.9
2017-Dec-15 18:30N 39°12' W 030°13'817.0
2017-Dec-15 18:01N 39°12' W 030°24'013.1
2017-Dec-15 18:00N 39°12' W 030°24'817.3 260 / 171029.010.8 21.017.819.0
2017-Dec-15 17:30N 39°12' W 030°35'917.1
2017-Dec-15 17:00N 39°11' W 030°46'917.3
2017-Dec-15 16:27N 39°10' W 030°58'2717.5
2017-Dec-15 14:55N 39°10' W 031°33'717.2
2017-Dec-15 14:30N 39°10' W 031°42'4216.8
2017-Dec-15 12:00N 39°06' W 032°36'31217.3 250 / 251030.0 5.4 20.018.4
2017-Dec-14 18:00N 39°12' W 039°18'41017.1 270 / 171025.010.8 21.017.820.0
2017-Dec-13 18:00N 38°24' W 048°00'41217.2 190 / 191014.010.8 21.016.121.0
2017-Dec-12 18:00N 37°00' W 056°30'39316.4 020 / 61013.010.8 20.014.922.0
2017-Dec-11 18:00N 35°00' W 064°12'40316.8 280 / 71018.010.8 20.010.922.0
2017-Dec-10 18:00N 32°42' W 071°48'43516.9 280 / 161017.010.8 18.010.625.0
2017-Dec-09 16:12N 31°56' W 080°20'314.9
2017-Dec-09 16:00N 31°56' W 080°24'5 9.5
2017-Dec-09 15:30N 31°56' W 080°29'5 9.5
2017-Dec-09 15:00N 31°56' W 080°35'4 9.0
2017-Dec-09 14:30N 31°57' W 080°40'5 9.3
2017-Dec-09 14:00N 31°59' W 080°45'713.8
2017-Dec-09 13:30N 32°02' W 080°52'611.2
2017-Dec-09 13:00N 32°04' W 080°58'5 8.9
2017-Dec-09 12:30N 32°05' W 081°04'3 6.1
2017-Dec-09 12:00N 32°06' W 081°07'1 2.6
2017-Dec-09 11:29N 32°07' W 081°08'0 0.0
2017-Dec-09 10:59N 32°07' W 081°08'0 0.0
2017-Dec-09 10:17N 32°07' W 081°08'0 0.0
2017-Dec-09 09:59N 32°07' W 081°08'0 0.0
2017-Dec-09 09:23N 32°07' W 081°08'0 0.0
2017-Dec-09 08:59N 32°07' W 081°08'0 0.0
2017-Dec-09 08:23N 32°07' W 081°08'0 0.0
2017-Dec-09 07:59N 32°07' W 081°08'0 0.0
2017-Dec-09 07:29N 32°07' W 081°08'0 0.0
2017-Dec-09 06:59N 32°07' W 081°08'0 0.0
2017-Dec-09 06:29N 32°07' W 081°08'0 0.0
2017-Dec-09 05:59N 32°07' W 081°08'0 0.0
2017-Dec-09 05:29N 32°07' W 081°08'0 0.0
2017-Dec-09 04:53N 32°07' W 081°08'0 0.0
2017-Dec-09 04:29N 32°07' W 081°08'0 0.0
2017-Dec-09 03:59N 32°07' W 081°08'0 0.0
2017-Dec-09 03:29N 32°07' W 081°08'0 0.0
2017-Dec-09 02:59N 32°07' W 081°08'0 0.0
2017-Dec-09 02:29N 32°07' W 081°08'0 0.0
2017-Dec-09 01:59N 32°07' W 081°08'0 0.0
2017-Dec-09 01:29N 32°07' W 081°08'0 0.0
2017-Dec-09 00:59N 32°07' W 081°08'0 0.0
2017-Dec-09 00:29N 32°07' W 081°08'0 0.0
2017-Dec-08 23:53N 32°07' W 081°08'0 0.0
2017-Dec-08 22:59N 32°07' W 081°08'0 0.0
2017-Dec-08 22:29N 32°07' W 081°08'0 0.0
2017-Dec-08 21:59N 32°07' W 081°08'0 0.0
2017-Dec-08 21:23N 32°07' W 081°08'0 0.0
2017-Dec-08 20:59N 32°07' W 081°08'0 0.0
2017-Dec-08 20:29N 32°07' W 081°08'1 1.4
2017-Dec-08 20:00N 32°08' W 081°08'1 2.8
2017-Dec-08 19:30N 32°07' W 081°07'3 6.8
2017-Dec-08 19:00N 32°05' W 081°04'4 8.2
2017-Dec-08 18:31N 32°05' W 080°59'612.3
2017-Dec-08 18:00N 32°02' W 080°53'815.8
2017-Dec-08 17:30N 31°59' W 080°45'611.3
2017-Dec-08 17:00N 31°56' W 080°39'4 8.3
2017-Dec-08 16:30N 31°53' W 080°35'1 1.2
2017-Dec-08 15:58N 31°54' W 080°35'1 1.7
2017-Dec-08 15:30N 31°54' W 080°34'1 1.7
2017-Dec-08 15:00N 31°55' W 080°33'1 1.9
2017-Dec-08 14:23N 31°56' W 080°32'1 1.9
2017-Dec-08 14:00N 31°56' W 080°31'1 1.8
2017-Dec-08 13:30N 31°57' W 080°31'1 1.7
2017-Dec-08 13:00N 31°58' W 080°30'1 1.9
2017-Dec-08 12:19N 31°58' W 080°29'0 1.4
2017-Dec-08 11:59N 31°59' W 080°29'2 4.5
2017-Dec-08 11:30N 31°57' W 080°31'1 2.5
2017-Dec-08 11:00N 31°56' W 080°31'2 3.2
2017-Dec-08 10:28N 31°56' W 080°29'1 1.6
2017-Dec-08 10:00N 31°57' W 080°28'1 1.5
2017-Dec-08 09:30N 31°57' W 080°27'1 1.4
2017-Dec-08 09:00N 31°57' W 080°26'1 1.4
2017-Dec-08 08:30N 31°58' W 080°26'1 1.3
2017-Dec-08 07:59N 31°58' W 080°25'1 1.3
2017-Dec-08 07:29N 31°59' W 080°24'1 1.2
2017-Dec-08 07:00N 31°59' W 080°24'1 1.1
2017-Dec-08 06:30N 31°59' W 080°23'  
Track history (hours):
 
Tides and Currents Weather Stations Pressure Air Temp Water Temp Dewpoint Dewpoint Depression Visibility Wind Speed Wind Dir Waves Ship Positions

Berlin Bridge

Last reported at 2017-Dec-15 20:00 UTC. Time now 2017-Dec-15 20:10 UTC.
Position N 39°14' W 029°40'.

Length 268 m; draft 10.3 m.

Type: Ship (hazmat cat A). MMSI: 477213800.

Date/timePositionNaut miles runAvg speedWind from/ knotsBaromVisibWave heightAir tempDewpointWater temp
2017-Dec-15 20:00N 39°14' W 029°40'917.1
2017-Dec-15 19:31N 39°13' W 029°51'917.1
2017-Dec-15 19:00N 39°13' W 030°02'816.9
2017-Dec-15 18:30N 39°12' W 030°13'817.0
2017-Dec-15 18:01N 39°12' W 030°24'013.1
2017-Dec-15 18:00N 39°12' W 030°24'817.3 260 / 171029.010.8 21.017.819.0
2017-Dec-15 17:30N 39°12' W 030°35'917.1
2017-Dec-15 17:00N 39°11' W 030°46'917.3
2017-Dec-15 16:27N 39°10' W 030°58'2717.5
2017-Dec-15 14:55N 39°10' W 031°33'717.2
2017-Dec-15 14:30N 39°10' W 031°42'4216.8
2017-Dec-15 12:00N 39°06' W 032°36'31217.3 250 / 251030.0 5.4 20.018.4
2017-Dec-14 18:00N 39°12' W 039°18'41017.1 270 / 171025.010.8 21.017.820.0
2017-Dec-13 18:00N 38°24' W 048°00'41217.2 190 / 191014.010.8 21.016.121.0
2017-Dec-12 18:00N 37°00' W 056°30'39316.4 020 / 61013.010.8 20.014.922.0
2017-Dec-11 18:00N 35°00' W 064°12'40316.8 280 / 71018.010.8 20.010.922.0
2017-Dec-10 18:00N 32°42' W 071°48'43516.9 280 / 161017.010.8 18.010.625.0
2017-Dec-09 16:12N 31°56' W 080°20'314.9
2017-Dec-09 16:00N 31°56' W 080°24'5 9.5
2017-Dec-09 15:30N 31°56' W 080°29'5 9.5
2017-Dec-09 15:00N 31°56' W 080°35'4 9.0
2017-Dec-09 14:30N 31°57' W 080°40'5 9.3
2017-Dec-09 14:00N 31°59' W 080°45'713.8
2017-Dec-09 13:30N 32°02' W 080°52'611.2
2017-Dec-09 13:00N 32°04' W 080°58'5 8.9
2017-Dec-09 12:30N 32°05' W 081°04'3 6.1
2017-Dec-09 12:00N 32°06' W 081°07'1 2.6
2017-Dec-09 11:29N 32°07' W 081°08'0 0.0
2017-Dec-09 10:59N 32°07' W 081°08'0 0.0
2017-Dec-09 10:17N 32°07' W 081°08'0 0.0
2017-Dec-09 09:59N 32°07' W 081°08'0 0.0
2017-Dec-09 09:23N 32°07' W 081°08'0 0.0
2017-Dec-09 08:59N 32°07' W 081°08'0 0.0
2017-Dec-09 08:23N 32°07' W 081°08'0 0.0
2017-Dec-09 07:59N 32°07' W 081°08'0 0.0
2017-Dec-09 07:29N 32°07' W 081°08'0 0.0
2017-Dec-09 06:59N 32°07' W 081°08'0 0.0
2017-Dec-09 06:29N 32°07' W 081°08'0 0.0
2017-Dec-09 05:59N 32°07' W 081°08'0 0.0
2017-Dec-09 05:29N 32°07' W 081°08'0 0.0
2017-Dec-09 04:53N 32°07' W 081°08'0 0.0
2017-Dec-09 04:29N 32°07' W 081°08'0 0.0
2017-Dec-09 03:59N 32°07' W 081°08'0 0.0
2017-Dec-09 03:29N 32°07' W 081°08'0 0.0
2017-Dec-09 02:59N 32°07' W 081°08'0 0.0
2017-Dec-09 02:29N 32°07' W 081°08'0 0.0
2017-Dec-09 01:59N 32°07' W 081°08'0 0.0
2017-Dec-09 01:29N 32°07' W 081°08'0 0.0
2017-Dec-09 00:59N 32°07' W 081°08'0 0.0
2017-Dec-09 00:29N 32°07' W 081°08'0 0.0
2017-Dec-08 23:53N 32°07' W 081°08'0 0.0
2017-Dec-08 22:59N 32°07' W 081°08'0 0.0
2017-Dec-08 22:29N 32°07' W 081°08'0 0.0
2017-Dec-08 21:59N 32°07' W 081°08'0 0.0
2017-Dec-08 21:23N 32°07' W 081°08'0 0.0
2017-Dec-08 20:59N 32°07' W 081°08'0 0.0
2017-Dec-08 20:29N 32°07' W 081°08'1 1.4
2017-Dec-08 20:00N 32°08' W 081°08'1 2.8
2017-Dec-08 19:30N 32°07' W 081°07'3 6.8
2017-Dec-08 19:00N 32°05' W 081°04'4 8.2
2017-Dec-08 18:31N 32°05' W 080°59'612.3
2017-Dec-08 18:00N 32°02' W 080°53'815.8
2017-Dec-08 17:30N 31°59' W 080°45'611.3
2017-Dec-08 17:00N 31°56' W 080°39'4 8.3
2017-Dec-08 16:30N 31°53' W 080°35'1 1.2
2017-Dec-08 15:58N 31°54' W 080°35'1 1.7
2017-Dec-08 15:30N 31°54' W 080°34'1 1.7
2017-Dec-08 15:00N 31°55' W 080°33'1 1.9
2017-Dec-08 14:23N 31°56' W 080°32'1 1.9
2017-Dec-08 14:00N 31°56' W 080°31'1 1.8
2017-Dec-08 13:30N 31°57' W 080°31'1 1.7
2017-Dec-08 13:00N 31°58' W 080°30'1 1.9
2017-Dec-08 12:19N 31°58' W 080°29'0 1.4
2017-Dec-08 11:59N 31°59' W 080°29'2 4.5
2017-Dec-08 11:30N 31°57' W 080°31'1 2.5
2017-Dec-08 11:00N 31°56' W 080°31'2 3.2
2017-Dec-08 10:28N 31°56' W 080°29'1 1.6
2017-Dec-08 10:00N 31°57' W 080°28'1 1.5
2017-Dec-08 09:30N 31°57' W 080°27'1 1.4
2017-Dec-08 09:00N 31°57' W 080°26'1 1.4
2017-Dec-08 08:30N 31°58' W 080°26'1 1.3
2017-Dec-08 07:59N 31°58' W 080°25'1 1.3
2017-Dec-08 07:29N 31°59' W 080°24'1 1.2
2017-Dec-08 07:00N 31°59' W 080°24'1 1.1
2017-Dec-08 06:30N 31°59' W 080°23'  

Dump ship's entire track history